createdAt,value
2022-10-05T00:02:22.480Z,100.00
2022-10-05T00:05:32.479Z,100.00
2022-10-05T00:08:35.416Z,100.00
2022-10-05T00:11:38.144Z,100.00
2022-10-05T00:14:40.636Z,100.00
2022-10-05T00:17:43.666Z,100.00
2022-10-05T00:20:47.565Z,100.00
2022-10-05T00:23:50.713Z,100.00
2022-10-05T00:26:57.819Z,100.00
2022-10-05T00:30:10.726Z,100.00
2022-10-05T00:33:13.151Z,100.00
2022-10-05T00:36:16.077Z,100.00
2022-10-05T00:39:19.117Z,100.00
2022-10-05T00:42:47.212Z,100.00
2022-10-05T00:46:00.923Z,100.00
2022-10-05T00:49:34.101Z,100.00
2022-10-05T00:53:26.052Z,100.00
2022-10-05T00:56:48.020Z,100.00
2022-10-05T01:00:08.078Z,100.00
2022-10-05T01:03:17.602Z,100.00
2022-10-05T01:06:29.878Z,100.00
2022-10-05T01:09:44.682Z,100.00
2022-10-05T01:13:11.967Z,100.00
2022-10-05T01:16:17.467Z,100.00
2022-10-05T01:19:56.704Z,100.00
2022-10-05T01:23:14.397Z,100.00
2022-10-05T01:26:38.972Z,100.00
2022-10-05T01:29:58.961Z,100.00
2022-10-05T01:33:21.844Z,100.00
2022-10-05T01:36:40.804Z,100.00
2022-10-05T01:39:55.065Z,100.00
2022-10-05T01:43:06.703Z,100.00
2022-10-05T01:46:30.621Z,100.00
2022-10-05T01:49:36.432Z,100.00
2022-10-05T01:53:17.239Z,100.00
2022-10-05T01:56:39.909Z,100.00
2022-10-05T02:00:16.598Z,100.00
2022-10-05T02:03:24.689Z,100.00
2022-10-05T02:06:32.278Z,100.00
2022-10-05T02:09:42.200Z,100.00
2022-10-05T02:12:46.323Z,100.00
2022-10-05T02:16:03.281Z,100.00
2022-10-05T02:19:18.532Z,100.00
2022-10-05T02:22:29.084Z,100.00
2022-10-05T02:25:35.376Z,100.00
2022-10-05T02:28:45.551Z,100.00
2022-10-05T02:31:52.997Z,100.00
2022-10-05T02:35:02.742Z,100.00
2022-10-05T02:38:38.470Z,100.00
2022-10-05T02:41:53.816Z,100.00
2022-10-05T02:45:42.545Z,100.00
2022-10-05T02:48:55.193Z,100.00
2022-10-05T02:52:07.609Z,100.00
2022-10-05T02:55:19.252Z,100.00
2022-10-05T02:58:25.031Z,100.00
2022-10-05T03:01:33.959Z,100.00
2022-10-05T03:04:46.463Z,100.00
2022-10-05T03:08:02.453Z,100.00
2022-10-05T03:11:18.514Z,100.00
2022-10-05T03:14:31.495Z,100.00
2022-10-05T03:17:39.825Z,100.00
2022-10-05T03:21:05.619Z,100.00
2022-10-05T03:24:14.037Z,100.00
2022-10-05T03:27:26.370Z,100.00
2022-10-05T03:30:48.005Z,100.00
2022-10-05T03:34:00.103Z,100.00
2022-10-05T03:37:04.932Z,100.00
2022-10-05T03:40:46.375Z,100.00
2022-10-05T03:43:54.612Z,100.00
2022-10-05T03:47:22.410Z,100.00
2022-10-05T03:50:25.195Z,100.00
2022-10-05T03:53:32.025Z,100.00
2022-10-05T03:56:41.773Z,100.00
2022-10-05T04:00:06.666Z,100.00
2022-10-05T04:03:29.036Z,100.00
2022-10-05T04:06:39.184Z,100.00
2022-10-05T04:09:44.001Z,100.00
2022-10-05T04:12:55.229Z,100.00
2022-10-05T04:16:13.997Z,100.00
2022-10-05T04:19:28.456Z,100.00
2022-10-05T04:22:37.495Z,100.00
2022-10-05T04:25:46.279Z,100.00
2022-10-05T04:29:15.006Z,100.00
2022-10-05T04:32:42.903Z,100.00
2022-10-05T04:36:04.655Z,100.00
2022-10-05T04:39:25.212Z,100.00
2022-10-05T04:42:38.236Z,100.00
2022-10-05T04:45:52.732Z,100.00
2022-10-05T04:49:30.719Z,100.00
2022-10-05T04:52:42.775Z,100.00
2022-10-05T04:55:54.118Z,100.00
2022-10-05T04:59:44.544Z,100.00
2022-10-05T05:02:59.203Z,100.00
2022-10-05T05:06:18.567Z,100.00
2022-10-05T05:09:49.748Z,100.00
2022-10-05T05:13:32.089Z,100.00
2022-10-05T05:16:51.506Z,100.00
2022-10-05T05:20:11.616Z,100.00
2022-10-05T05:23:36.371Z,100.00
2022-10-05T05:27:00.924Z,100.00
2022-10-05T05:30:41.398Z,100.00
2022-10-05T05:33:59.380Z,100.00
2022-10-05T05:37:23.991Z,100.00
2022-10-05T05:40:59.742Z,100.00
2022-10-05T05:44:26.030Z,100.00
2022-10-05T05:47:43.249Z,100.00
2022-10-05T05:51:00.610Z,100.00
2022-10-05T05:54:18.365Z,100.00
2022-10-05T05:57:28.385Z,100.00
2022-10-05T06:00:47.981Z,100.00
2022-10-05T06:04:15.630Z,100.00
2022-10-05T06:07:28.136Z,100.00
2022-10-05T06:10:51.478Z,100.00
2022-10-05T06:13:55.949Z,100.00
2022-10-05T06:17:16.146Z,100.00
2022-10-05T06:20:37.128Z,100.00
2022-10-05T06:23:43.176Z,100.00
2022-10-05T06:27:01.060Z,100.00
2022-10-05T06:30:13.566Z,100.00
2022-10-05T06:33:34.793Z,100.00
2022-10-05T06:36:46.273Z,100.00
2022-10-05T06:40:00.747Z,100.00
2022-10-05T06:43:12.486Z,100.00
2022-10-05T06:46:23.500Z,100.00
2022-10-05T06:49:44.884Z,100.00
2022-10-05T06:53:12.874Z,100.00
2022-10-05T06:56:28.559Z,100.00
2022-10-05T07:00:00.386Z,100.00
2022-10-05T07:03:08.695Z,100.00
2022-10-05T07:06:36.001Z,100.00
2022-10-05T07:09:42.796Z,97.03
2022-10-05T07:13:16.232Z,90.08
2022-10-05T07:16:30.582Z,87.31
2022-10-05T07:20:03.849Z,84.08
2022-10-05T07:23:34.915Z,81.18
2022-10-05T07:26:47.123Z,73.15
2022-10-05T07:30:14.127Z,73.46
2022-10-05T07:33:27.975Z,70.92
2022-10-05T07:37:14.158Z,68.50
2022-10-05T07:40:30.003Z,67.74
2022-10-05T07:44:01.966Z,66.93
2022-10-05T07:47:19.743Z,66.12
2022-10-05T07:50:46.285Z,65.11
2022-10-05T07:54:16.445Z,62.67
2022-10-05T07:57:48.527Z,61.26
2022-10-05T08:01:05.493Z,59.82
2022-10-05T08:04:20.398Z,62.15
2022-10-05T08:10:40.265Z,61.22
2022-10-05T08:13:56.349Z,65.11
2022-10-05T08:17:01.452Z,66.04
2022-10-05T08:20:42.889Z,63.84
2022-10-05T08:23:56.658Z,60.53
2022-10-05T08:27:50.271Z,56.23
2022-10-05T08:31:01.562Z,55.24
2022-10-05T08:34:22.858Z,51.30
2022-10-05T08:37:37.684Z,55.08
2022-10-05T08:40:40.257Z,53.09
2022-10-05T08:43:42.906Z,52.97
2022-10-05T08:47:10.431Z,52.87
2022-10-05T08:50:24.286Z,55.20
2022-10-05T08:53:40.672Z,53.08
2022-10-05T08:57:08.650Z,57.60
2022-10-05T09:00:21.646Z,55.21
2022-10-05T09:03:34.426Z,56.97
2022-10-05T09:07:08.200Z,55.82
2022-10-05T09:10:20.726Z,54.98
2022-10-05T09:14:01.044Z,49.87
2022-10-05T09:17:24.845Z,45.94
2022-10-05T09:20:32.303Z,43.84
2022-10-05T09:23:43.122Z,41.45
2022-10-05T09:27:02.546Z,37.91
2022-10-05T09:30:15.019Z,44.12
2022-10-05T09:33:39.096Z,40.68
2022-10-05T09:36:48.068Z,40.61
2022-10-05T09:40:03.118Z,40.07
2022-10-05T09:43:30.469Z,39.23
2022-10-05T09:46:33.257Z,41.51
2022-10-05T09:49:38.983Z,39.47
2022-10-05T09:53:03.713Z,37.66
2022-10-05T09:56:21.246Z,41.07
2022-10-05T09:59:23.643Z,42.31
2022-10-05T10:02:53.097Z,42.57
2022-10-05T10:06:40.691Z,41.76
2022-10-05T10:10:20.935Z,41.55
2022-10-05T10:13:53.498Z,42.85
2022-10-05T10:17:22.531Z,41.34
2022-10-05T10:20:27.173Z,43.66
2022-10-05T10:23:47.593Z,41.30
2022-10-05T10:27:11.937Z,42.85
2022-10-05T10:30:19.035Z,42.19
2022-10-05T10:33:37.099Z,45.38
2022-10-05T10:37:11.635Z,44.36
2022-10-05T10:40:48.140Z,43.98
2022-10-05T10:43:53.689Z,43.15
2022-10-05T10:47:15.068Z,42.66
2022-10-05T10:50:24.051Z,45.23
2022-10-05T10:53:58.243Z,45.92
2022-10-05T10:57:04.432Z,44.17
2022-10-05T11:00:38.401Z,45.60
2022-10-05T11:03:51.225Z,47.73
2022-10-05T11:07:16.237Z,48.83
2022-10-05T11:10:56.252Z,51.71
2022-10-05T11:14:04.732Z,51.29
2022-10-05T11:17:25.603Z,51.68
2022-10-05T11:21:02.629Z,52.09
2022-10-05T11:24:24.137Z,52.24
2022-10-05T11:28:00.637Z,53.49
2022-10-05T11:31:18.542Z,53.70
2022-10-05T11:34:54.546Z,52.89
2022-10-05T11:38:35.503Z,52.94
2022-10-05T11:41:50.829Z,52.39
2022-10-05T11:45:06.289Z,54.18
2022-10-05T11:48:30.666Z,53.77
2022-10-05T11:51:46.414Z,54.46
2022-10-05T11:55:09.725Z,53.98
2022-10-05T11:58:19.581Z,53.93
2022-10-05T12:01:30.811Z,53.29
2022-10-05T12:04:55.449Z,53.70
2022-10-05T12:08:16.224Z,52.79
2022-10-05T12:11:57.754Z,53.52
2022-10-05T12:15:17.633Z,53.00
2022-10-05T12:18:34.120Z,53.13
2022-10-05T12:21:41.688Z,54.45
2022-10-05T12:25:13.850Z,53.78
2022-10-05T12:28:21.348Z,53.21
2022-10-05T12:31:49.448Z,53.98
2022-10-05T12:35:03.537Z,53.83
2022-10-05T12:38:28.694Z,53.00
2022-10-05T12:41:36.696Z,53.96
2022-10-05T12:45:04.592Z,53.64
2022-10-05T12:48:19.843Z,54.17
2022-10-05T12:51:27.500Z,54.13
2022-10-05T12:54:54.303Z,53.86
2022-10-05T12:58:05.367Z,53.44
2022-10-05T13:01:30.696Z,54.74
2022-10-05T13:04:44.323Z,54.56
2022-10-05T13:07:52.779Z,55.08
2022-10-05T13:11:14.101Z,55.06
2022-10-05T13:14:50.924Z,55.42
2022-10-05T13:18:06.453Z,55.41
2022-10-05T13:21:29.288Z,55.80
2022-10-05T13:24:37.515Z,56.06
2022-10-05T13:28:03.865Z,55.33
2022-10-05T13:31:16.078Z,55.64
2022-10-05T13:34:44.829Z,55.81
2022-10-05T13:38:13.454Z,56.12
2022-10-05T13:41:31.074Z,56.95
2022-10-05T13:44:51.033Z,57.99
2022-10-05T13:48:32.392Z,58.27
2022-10-05T13:51:48.961Z,58.03
2022-10-05T13:54:57.243Z,59.21
2022-10-05T13:58:14.008Z,59.52
2022-10-05T14:01:43.332Z,59.52
2022-10-05T14:04:51.112Z,59.91
2022-10-05T14:08:16.972Z,59.74
2022-10-05T14:11:23.932Z,60.33
2022-10-05T14:14:30.481Z,61.33
2022-10-05T14:17:33.330Z,61.31
2022-10-05T14:20:36.031Z,61.11
2022-10-05T14:23:38.900Z,61.37
2022-10-05T14:26:41.319Z,61.82
2022-10-05T14:29:44.101Z,62.39
2022-10-05T14:32:56.952Z,62.03
2022-10-05T14:36:00.070Z,62.44
2022-10-05T14:39:05.147Z,62.60
2022-10-05T14:42:18.116Z,63.43
2022-10-05T14:45:25.754Z,63.32
2022-10-05T14:48:37.959Z,62.76
2022-10-05T14:51:42.245Z,62.98
2022-10-05T14:55:00.943Z,62.67
2022-10-05T14:58:42.948Z,62.90
2022-10-05T15:01:55.720Z,62.94
2022-10-05T15:05:15.279Z,63.05
2022-10-05T15:08:52.132Z,63.24
2022-10-05T15:11:59.278Z,63.61
2022-10-05T15:15:27.084Z,64.24
2022-10-05T15:18:56.699Z,64.90
2022-10-05T15:22:21.890Z,65.23
2022-10-05T15:25:41.978Z,65.44
2022-10-05T15:28:58.751Z,65.79
2022-10-05T15:32:20.052Z,65.90
2022-10-05T15:35:41.492Z,65.92
2022-10-05T15:39:19.319Z,66.32
2022-10-05T15:42:33.835Z,66.45
2022-10-05T15:45:40.089Z,66.45
2022-10-05T15:48:59.036Z,66.54
2022-10-05T15:52:52.695Z,66.81
2022-10-05T15:56:07.253Z,67.35
2022-10-05T15:59:51.996Z,67.91
2022-10-05T16:02:57.582Z,68.01
2022-10-05T16:06:24.029Z,68.60
2022-10-05T16:09:52.068Z,68.86
2022-10-05T16:13:07.200Z,69.59
2022-10-05T16:16:31.184Z,70.10
2022-10-05T16:19:43.088Z,70.74
2022-10-05T16:23:00.938Z,71.20
2022-10-05T16:26:09.095Z,71.61
2022-10-05T16:29:42.587Z,71.84
2022-10-05T16:33:08.789Z,71.95
2022-10-05T16:36:34.042Z,71.99
2022-10-05T16:39:44.135Z,72.22
2022-10-05T16:42:53.620Z,72.27
2022-10-05T16:46:07.743Z,72.71
2022-10-05T16:49:43.070Z,72.80
2022-10-05T16:52:50.344Z,72.55
2022-10-05T16:55:56.125Z,72.66
2022-10-05T16:59:29.984Z,72.92
2022-10-05T17:02:46.020Z,73.17
2022-10-05T17:06:23.072Z,73.01
2022-10-05T17:09:43.729Z,72.88
2022-10-05T17:13:01.280Z,73.14
2022-10-05T17:16:18.817Z,73.58
2022-10-05T17:19:27.302Z,73.61
2022-10-05T17:22:36.486Z,73.04
2022-10-05T17:25:45.297Z,73.26
2022-10-05T17:28:51.011Z,73.54
2022-10-05T17:32:09.220Z,73.94
2022-10-05T17:35:18.792Z,74.19
2022-10-05T17:38:30.639Z,74.52
2022-10-05T17:41:33.227Z,74.77
2022-10-05T17:44:36.012Z,75.20
2022-10-05T17:48:08.594Z,75.33
2022-10-05T17:51:48.469Z,75.78
2022-10-05T17:55:09.246Z,76.22
2022-10-05T17:58:24.473Z,76.46
2022-10-05T18:01:46.265Z,77.01
2022-10-05T18:05:04.569Z,77.40
2022-10-05T18:08:13.179Z,77.60
2022-10-05T18:11:36.699Z,77.48
2022-10-05T18:14:55.287Z,77.50
2022-10-05T18:18:19.760Z,77.67
2022-10-05T18:21:32.303Z,78.08
2022-10-05T18:24:55.746Z,78.43
2022-10-05T18:28:17.290Z,78.45
2022-10-05T18:31:32.211Z,78.90
2022-10-05T18:34:39.381Z,78.96
2022-10-05T18:37:57.902Z,79.35
2022-10-05T18:41:17.935Z,79.38
2022-10-05T18:44:36.518Z,79.25
2022-10-05T18:47:57.464Z,79.29
2022-10-05T18:51:18.689Z,79.24
2022-10-05T18:54:37.135Z,79.63
2022-10-05T18:57:51.756Z,79.45
2022-10-05T19:00:59.957Z,79.46
2022-10-05T19:04:14.916Z,79.60
2022-10-05T19:07:42.083Z,79.73
2022-10-05T19:10:59.320Z,79.79
2022-10-05T19:14:18.217Z,80.40
2022-10-05T19:17:25.508Z,80.78
2022-10-05T19:20:54.626Z,81.10
2022-10-05T19:24:04.466Z,81.53
2022-10-05T19:27:10.895Z,81.81
2022-10-05T19:30:26.236Z,81.77
2022-10-05T19:33:33.722Z,81.66
2022-10-05T19:37:14.688Z,81.79
2022-10-05T19:40:49.829Z,81.60
2022-10-05T19:44:10.821Z,81.44
2022-10-05T19:47:41.093Z,81.08
2022-10-05T19:50:55.724Z,81.52
2022-10-05T19:54:25.127Z,81.65
2022-10-05T19:57:28.765Z,81.28
2022-10-05T20:00:35.619Z,82.01
2022-10-05T20:03:38.743Z,82.49
2022-10-05T20:06:42.227Z,82.78
2022-10-05T20:09:59.338Z,83.36
2022-10-05T20:13:03.774Z,83.52
2022-10-05T20:16:36.059Z,83.74
2022-10-05T20:19:57.939Z,84.21
2022-10-05T20:23:22.204Z,84.19
2022-10-05T20:27:16.133Z,84.06
2022-10-05T20:30:24.756Z,83.87
2022-10-05T20:33:27.852Z,84.01
2022-10-05T20:36:30.553Z,84.01
2022-10-05T20:39:33.031Z,84.10
2022-10-05T20:42:35.768Z,83.77
2022-10-05T20:45:43.267Z,84.04
2022-10-05T20:48:46.056Z,84.03
2022-10-05T20:51:48.600Z,84.08
2022-10-05T20:54:53.883Z,83.71
2022-10-05T20:57:56.776Z,83.16
2022-10-05T21:01:18.074Z,83.12
2022-10-05T21:04:23.356Z,83.09
2022-10-05T21:07:26.075Z,82.73
2022-10-05T21:10:28.489Z,82.48
2022-10-05T21:13:31.173Z,82.50
2022-10-05T21:16:38.154Z,82.36
2022-10-05T21:19:41.064Z,82.14
2022-10-05T21:22:43.483Z,82.54
2022-10-05T21:25:46.144Z,82.48
2022-10-05T21:28:48.642Z,82.79
2022-10-05T21:31:51.537Z,82.15
2022-10-05T21:34:54.088Z,82.77
2022-10-05T21:37:56.785Z,83.06
2022-10-05T21:41:01.741Z,83.27
2022-10-05T21:44:06.303Z,83.76
2022-10-05T21:47:08.830Z,84.04
2022-10-05T21:50:11.742Z,84.46
2022-10-05T21:53:17.133Z,85.08
2022-10-05T21:56:21.994Z,85.55
2022-10-05T21:59:27.836Z,85.66
2022-10-05T22:02:30.533Z,85.64
2022-10-05T22:05:33.438Z,86.44
2022-10-05T22:08:36.285Z,86.78
2022-10-05T22:11:39.157Z,87.45
2022-10-05T22:14:42.705Z,87.88
2022-10-05T22:17:46.180Z,88.02
2022-10-05T22:20:50.226Z,88.49
2022-10-05T22:23:53.010Z,89.43
2022-10-05T22:26:55.560Z,89.96
2022-10-05T22:29:58.632Z,90.26
2022-10-05T22:33:01.123Z,90.50
2022-10-05T22:36:04.941Z,91.15
2022-10-05T22:39:08.150Z,91.25
2022-10-05T22:42:11.040Z,92.72
2022-10-05T22:45:14.331Z,92.37
2022-10-05T22:48:17.223Z,92.72
2022-10-05T22:51:19.862Z,94.17
2022-10-05T22:54:26.305Z,94.28
2022-10-05T22:57:39.185Z,94.87
2022-10-05T23:00:57.933Z,95.33
2022-10-05T23:04:00.902Z,95.63
2022-10-05T23:07:03.719Z,95.40
2022-10-05T23:10:08.263Z,95.58
2022-10-05T23:13:11.053Z,95.82
2022-10-05T23:16:14.491Z,96.17
2022-10-05T23:19:17.263Z,96.10
2022-10-05T23:22:21.489Z,95.82
2022-10-05T23:25:24.228Z,95.55
2022-10-05T23:28:28.186Z,95.49
2022-10-05T23:31:32.280Z,95.71
2022-10-05T23:34:34.782Z,95.42
2022-10-05T23:37:39.592Z,95.76
2022-10-05T23:40:46.377Z,97.59
2022-10-05T23:43:49.343Z,98.06
2022-10-05T23:46:51.818Z,97.17
2022-10-05T23:49:55.480Z,97.94
2022-10-05T23:52:58.103Z,98.85
2022-10-05T23:56:01.037Z,100.00
2022-10-05T23:59:03.656Z,100.00
